Time;durP1;ratioP1;P1;durP2;ratioP2;P2;SDS_P1;SDS_P2;PMS_P1;PMS_P2;Temp;Humidity;BMP_temperature;BMP_pressure;BME280_temperature;BME280_humidity;BME280_pressure;Samples;Min_cycle;Max_cycle;Signal;HPM_P1;HPM_P2
2023/07/03 00:03:57;;;;;;;7.20;5.10;;;;;;;13.38;68.66;99220.31;219993;1255;140410;-67
2023/07/03 00:09:01;;;;;;;6.80;5.30;;;;;;;13.44;68.76;99222.26;219813;1253;140674;-68
2023/07/03 00:14:05;;;;;;;11.50;6.00;;;;;;;13.48;68.77;99226.21;220694;1254;139846;-68
2023/07/03 00:19:13;;;;;;;9.80;5.50;;;;;;;13.56;68.70;99229.80;219632;1254;141569;-67
2023/07/03 00:24:17;;;;;;;8.50;5.50;;;;;;;13.60;68.69;99233.84;220949;1258;139883;-68
2023/07/03 00:29:23;;;;;;;8.60;6.70;;;;;;;13.61;68.73;99238.49;220180;1257;139482;-67
2023/07/03 00:34:27;;;;;;;7.70;5.60;;;;;;;13.61;68.40;99236.20;219447;1254;140466;-67
2023/07/03 00:39:31;;;;;;;13.50;5.90;;;;;;;13.59;68.57;99238.60;219385;1254;141111;-67
2023/07/03 00:44:36;;;;;;;12.00;6.30;;;;;;;13.52;68.40;99244.85;218565;1254;140156;-67
2023/07/03 00:49:40;;;;;;;8.80;5.90;;;;;;;13.47;68.57;99243.77;218277;1255;140803;-67
2023/07/03 00:54:44;;;;;;;6.60;5.90;;;;;;;13.42;68.78;99249.55;218712;1254;139636;-67
2023/07/03 00:59:49;;;;;;;11.40;6.30;;;;;;;13.36;68.58;99254.05;219082;1259;139718;-67
2023/07/03 01:05:02;;;;;;;8.50;5.50;;;;;;;13.26;68.63;99260.48;219111;1254;140356;-67
2023/07/03 01:10:15;;;;;;;10.20;6.10;;;;;;;13.14;68.83;99268.36;218318;1255;139721;-67
2023/07/03 01:15:25;;;;;;;9.40;6.70;;;;;;;13.07;69.05;99265.01;219149;1258;139949;-67
2023/07/03 01:20:37;;;;;;;12.10;6.90;;;;;;;12.99;69.04;99268.45;218898;1254;139660;-66
2023/07/03 01:25:43;;;;;;;9.50;6.30;;;;;;;12.93;69.20;99264.20;218334;1259;139902;-66
2023/07/03 01:30:50;;;;;;;7.50;5.90;;;;;;;12.85;69.41;99260.41;218388;1255;140724;-66
2023/07/03 01:35:56;;;;;;;9.40;7.40;;;;;;;12.77;69.47;99257.13;218280;1259;140069;-66
2023/07/03 01:41:01;;;;;;;9.30;6.40;;;;;;;12.69;69.59;99255.48;218927;1254;140313;-66
2023/07/03 01:46:08;;;;;;;10.30;6.20;;;;;;;12.57;69.62;99261.51;218482;1258;140012;-66
2023/07/03 01:51:21;;;;;;;12.60;6.40;;;;;;;12.46;69.72;99255.47;220156;1257;140194;-67
2023/07/03 01:56:31;;;;;;;8.20;6.30;;;;;;;12.33;69.76;99250.67;219993;1257;139996;-66
2023/07/03 02:01:56;;;;;;;9.90;5.70;;;;;;;12.21;69.94;99248.20;220811;1254;140225;-66
2023/07/03 02:07:03;;;;;;;10.20;6.60;;;;;;;12.12;70.19;99250.38;219387;1258;139973;-65
2023/07/03 02:12:08;;;;;;;;;;;;;;;11.98;70.06;99254.55;220070;1254;139728;-66
2023/07/03 02:17:13;;;;;;;7.10;6.20;;;;;;;11.84;70.58;99255.77;220507;1254;126771;-66
2023/07/03 02:22:17;;;;;;;10.80;6.30;;;;;;;11.78;70.78;99248.39;220388;1254;141888;-66
2023/07/03 02:27:21;;;;;;;5.40;4.90;;;;;;;11.66;70.77;99249.05;220967;1254;141862;-67
2023/07/03 02:32:36;;;;;;;9.00;6.20;;;;;;;11.54;70.88;99251.04;219257;1253;140015;-65
2023/07/03 02:37:40;;;;;;;8.60;5.80;;;;;;;11.48;71.00;99250.39;218393;1254;140224;-68
2023/07/03 02:42:44;;;;;;;7.90;4.70;;;;;;;11.42;71.45;99251.71;220083;1254;140194;-66
2023/07/03 02:47:49;;;;;;;6.20;5.50;;;;;;;11.35;71.72;99253.77;219708;1253;139986;-66
2023/07/03 02:52:53;;;;;;;9.30;5.90;;;;;;;11.34;72.16;99261.65;218095;1259;140256;-66
2023/07/03 02:57:58;;;;;;;8.30;5.80;;;;;;;11.34;72.41;99270.09;218192;1259;139733;-68
2023/07/03 03:03:04;;;;;;;12.10;6.70;;;;;;;11.42;72.99;99263.56;219074;1254;140213;-68
2023/07/03 03:08:11;;;;;;;6.10;5.50;;;;;;;11.50;73.20;99264.19;218594;1254;139647;-68
2023/07/03 03:13:16;;;;;;;9.90;6.80;;;;;;;11.57;73.69;99266.77;218473;1254;139867;-68
2023/07/03 03:18:21;;;;;;;9.30;6.50;;;;;;;11.64;73.88;99260.36;219133;1254;140547;-68
2023/07/03 03:23:26;;;;;;;10.90;7.50;;;;;;;11.80;74.55;99263.10;219234;1254;140545;-68
2023/07/03 03:28:31;;;;;;;7.90;6.50;;;;;;;12.04;74.97;99262.86;218964;1254;140865;-68
2023/07/03 03:33:35;;;;;;;12.10;7.00;;;;;;;12.27;75.05;99266.83;218959;1254;140335;-68
2023/07/03 03:38:40;;;;;;;8.00;5.10;;;;;;;12.52;74.66;99266.40;219420;1254;142108;-66
2023/07/03 03:43:48;;;;;;;15.10;7.90;;;;;;;12.78;74.17;99254.39;218315;1257;139909;-66
2023/07/03 03:48:52;;;;;;;9.80;5.80;;;;;;;13.05;73.99;99243.42;219824;1254;140258;-65
2023/07/03 03:53:56;;;;;;;11.50;6.60;;;;;;;13.32;73.45;99252.73;219084;1255;140233;-66
2023/07/03 03:59:01;;;;;;;11.10;6.80;;;;;;;13.58;72.82;99254.30;219765;1254;139811;-66
2023/07/03 04:04:06;;;;;;;9.10;5.50;;;;;;;13.95;72.36;99260.73;220478;1254;140583;-66
2023/07/03 04:09:10;;;;;;;9.60;5.70;;;;;;;14.27;71.80;99267.15;220968;1254;140045;-66
2023/07/03 04:14:16;;;;;;;12.20;6.20;;;;;;;14.51;71.34;99263.86;220302;1254;141349;-66
2023/07/03 04:19:20;;;;;;;11.00;5.80;;;;;;;14.78;70.67;99271.14;220766;1254;141716;-66
2023/07/03 04:24:24;;;;;;;10.50;6.60;;;;;;;15.08;69.97;99274.84;221086;1254;140528;-66
2023/07/03 04:29:28;;;;;;;6.10;5.50;;;;;;;15.49;69.18;99274.27;221091;1254;141328;-65
2023/07/03 04:34:33;;;;;;;11.30;6.60;;;;;;;15.84;68.49;99275.56;219162;1254;140419;-68
2023/07/03 04:39:37;;;;;;;13.20;7.80;;;;;;;16.64;67.48;99284.31;218390;1257;140847;-68
2023/07/03 04:44:41;;;;;;;10.40;6.90;;;;;;;17.93;65.86;99285.31;219227;1254;140517;-63
2023/07/03 04:49:48;;;;;;;8.60;6.60;;;;;;;18.75;64.46;99281.68;219657;1254;139603;-64
2023/07/03 04:54:51;;;;;;;7.50;6.40;;;;;;;19.50;62.95;99283.49;218095;1254;141595;-67
2023/07/03 04:59:55;;;;;;;10.10;7.10;;;;;;;19.81;61.69;99284.27;219473;1254;139959;-66
2023/07/03 05:05:00;;;;;;;11.20;6.50;;;;;;;19.93;60.76;99285.65;218479;1255;139025;-66
2023/07/03 05:10:07;;;;;;;12.50;7.50;;;;;;;20.28;59.39;99291.61;218733;1254;140256;-66
2023/07/03 05:15:13;;;;;;;11.00;6.10;;;;;;;22.18;57.07;99293.48;218038;1254;139887;-66
2023/07/03 05:20:19;;;;;;;6.20;5.70;;;;;;;25.62;53.39;99297.81;218219;1254;139834;-62
2023/07/03 05:25:23;;;;;;;11.70;6.50;;;;;;;28.41;49.94;99304.23;218531;1257;139452;-66
2023/07/03 05:30:28;;;;;;;7.60;6.50;;;;;;;30.43;46.32;99310.46;217975;1254;139961;-65
2023/07/03 05:35:32;;;;;;;9.10;5.60;;;;;;;32.04;43.61;99319.10;218691;1254;138862;-67
2023/07/03 05:40:37;;;;;;;5.10;4.20;;;;;;;33.49;41.26;99324.61;218272;1254;139210;-66
2023/07/03 05:45:41;;;;;;;7.10;4.40;;;;;;;34.33;39.44;99319.98;218610;1254;139694;-67
2023/07/03 05:50:46;;;;;;;5.40;3.90;;;;;;;34.31;37.09;99327.11;219069;1254;138868;-68
2023/07/03 05:55:58;;;;;;;8.90;4.30;;;;;;;34.68;35.99;99327.27;217875;1259;151121;-67
2023/07/03 06:01:03;;;;;;;8.50;5.60;;;;;;;33.18;35.62;99323.95;220213;1254;139070;-66
2023/07/03 06:06:08;;;;;;;6.60;4.30;;;;;;;31.80;35.48;99327.80;220683;1254;139267;-66
2023/07/03 06:11:13;;;;;;;6.70;4.00;;;;;;;30.48;35.85;99326.10;218061;1257;139128;-66
2023/07/03 06:16:19;;;;;;;7.00;4.90;;;;;;;29.90;36.23;99325.41;220623;1254;139242;-66
2023/07/03 06:21:24;;;;;;;7.70;5.30;;;;;;;28.93;36.99;99329.06;220411;1254;139898;-67
2023/07/03 06:26:30;;;;;;;7.60;5.40;;;;;;;28.03;37.81;99332.45;219215;1254;139611;-66
2023/07/03 06:31:36;;;;;;;11.20;5.20;;;;;;;27.77;38.39;99333.18;218631;1253;139567;-66
2023/07/03 06:36:41;;;;;;;8.40;5.30;;;;;;;28.10;38.13;99328.77;218543;1256;139932;-66
2023/07/03 06:41:46;;;;;;;10.00;5.00;;;;;;;29.63;37.74;99327.25;218675;1254;139194;-66
2023/07/03 06:46:51;;;;;;;9.60;4.30;;;;;;;30.91;36.39;99329.34;219000;1253;140647;-67
2023/07/03 06:51:57;;;;;;;6.90;4.10;;;;;;;30.84;34.71;99323.55;218790;1257;139648;-67
2023/07/03 06:57:02;;;;;;;6.80;3.30;;;;;;;31.94;34.29;99321.59;218408;1254;139190;-67
2023/07/03 07:02:06;;;;;;;5.00;3.60;;;;;;;31.80;33.32;99316.51;218753;1254;138945;-70
2023/07/03 07:07:11;;;;;;;5.90;4.60;;;;;;;31.70;32.71;99313.30;217858;1257;138906;-69
2023/07/03 07:12:17;;;;;;;6.20;3.20;;;;;;;30.94;32.46;99311.51;218725;1254;139331;-70
2023/07/03 07:17:21;;;;;;;7.20;4.50;;;;;;;30.36;32.61;99310.41;218002;1257;139114;-69
2023/07/03 07:22:38;;;;;;;10.90;4.60;;;;;;;30.56;32.73;99309.91;218639;1254;141411;-69
2023/07/03 07:27:41;;;;;;;5.60;4.50;;;;;;;30.29;32.72;99304.98;219030;1254;140132;-67
2023/07/03 08:27:07;;;;;;;9.40;6.00;;;;;;;27.85;34.47;99288.42;218665;1254;138998;-67
2023/07/03 08:32:15;;;;;;;11.50;6.70;;;;;;;27.64;34.81;99286.20;219441;1254;140278;-67
2023/07/03 08:37:47;;;;;;;7.30;6.00;;;;;;;27.37;35.01;99277.52;218411;1254;139009;-67
2023/07/03 08:43:20;;;;;;;9.60;5.40;;;;;;;27.49;35.60;99269.58;218604;1253;246189;-66
2023/07/03 08:48:27;;;;;;;9.10;6.60;;;;;;;28.21;35.73;99265.27;218311;1254;138940;-66
2023/07/03 08:53:42;;;;;;;8.40;5.80;;;;;;;28.21;35.11;99261.27;218792;1254;139821;-66
2023/07/03 08:58:50;;;;;;;15.50;7.10;;;;;;;28.18;35.16;99258.62;218063;1254;140124;-65
2023/07/03 09:04:09;;;;;;;16.20;7.50;;;;;;;28.30;35.57;99262.87;218697;1254;140516;-67
2023/07/03 09:09:22;;;;;;;10.10;7.10;;;;;;;28.51;34.35;99253.19;218071;1254;140547;-67
2023/07/03 09:14:33;;;;;;;11.30;6.90;;;;;;;28.37;34.01;99260.15;218067;1255;140206;-66
2023/07/03 09:19:42;;;;;;;10.70;5.50;;;;;;;27.99;34.42;99262.96;218225;1254;139056;-66
2023/07/03 09:24:51;;;;;;;12.20;5.70;;;;;;;27.98;34.33;99260.90;218356;1254;139560;-66
2023/07/03 09:30:02;;;;;;;13.30;7.50;;;;;;;27.82;34.06;99258.95;219398;1254;139104;-67
2023/07/03 09:35:13;;;;;;;11.80;5.50;;;;;;;27.77;33.93;99266.98;218703;1254;138952;-67
2023/07/03 09:40:23;;;;;;;9.50;6.80;;;;;;;27.81;34.45;99257.36;219693;1254;139703;-67
2023/07/03 09:45:33;;;;;;;7.80;5.40;;;;;;;28.10;34.40;99255.88;218162;1254;141628;-68
2023/07/03 09:50:40;;;;;;;16.30;6.90;;;;;;;28.28;33.70;99266.09;219417;1253;138842;-68
2023/07/03 09:56:15;;;;;;;8.30;5.70;;;;;;;28.26;33.97;99251.04;220837;1253;139378;-67
2023/07/03 10:01:26;;;;;;;8.00;6.10;;;;;;;28.08;33.95;99253.81;219709;1253;139603;-67
2023/07/03 10:06:40;;;;;;;10.20;6.70;;;;;;;27.91;33.80;99254.02;220580;1254;139846;-68
2023/07/03 10:12:03;;;;;;;10.40;5.90;;;;;;;27.94;34.23;99241.50;220851;1253;141038;-68
2023/07/03 10:17:12;;;;;;;11.30;7.00;;;;;;;27.81;34.33;99242.87;218981;1253;140343;-68
2023/07/03 10:22:23;;;;;;;10.60;6.80;;;;;;;27.97;34.89;99237.64;218666;1257;139806;-68
2023/07/03 10:27:29;;;;;;;6.50;5.90;;;;;;;27.79;34.58;99239.02;218319;1253;139349;-67
2023/07/03 10:32:36;;;;;;;10.40;6.70;;;;;;;27.79;34.52;99236.81;220045;1253;140900;-68
2023/07/03 10:38:08;;;;;;;15.00;6.90;;;;;;;27.74;34.30;99230.70;218349;1254;139595;-71
2023/07/03 10:43:16;;;;;;;10.40;7.80;;;;;;;27.62;34.43;99225.92;218395;1253;742210;-71
2023/07/03 10:48:28;;;;;;;12.00;7.50;;;;;;;27.86;34.84;99222.93;218476;1254;138839;-67
2023/07/03 10:53:50;;;;;;;11.20;8.30;;;;;;;27.73;34.62;99218.84;218175;1254;139317;-67
2023/07/03 10:59:33;;;;;;;12.20;7.00;;;;;;;27.26;34.68;99214.58;218206;1254;140198;-68
2023/07/03 11:04:38;;;;;;;8.60;7.50;;;;;;;27.00;35.23;99201.95;219290;1254;142044;-70
2023/07/03 11:10:08;;;;;;;14.20;7.50;;;;;;;26.89;35.35;99198.89;218745;1257;138755;-70
2023/07/03 11:15:23;;;;;;;8.40;6.70;;;;;;;26.66;35.59;99208.73;218847;1253;151281;-69
2023/07/03 11:20:41;;;;;;;8.80;6.70;;;;;;;26.59;35.77;99206.15;218911;1253;139078;-69
2023/07/03 11:26:36;;;;;;;10.40;7.20;;;;;;;26.86;36.21;99196.54;219088;1254;138970;-69
2023/07/03 11:31:45;;;;;;;10.00;7.20;;;;;;;27.37;36.15;99195.89;219063;1257;139840;-67
2023/07/03 11:36:54;;;;;;;9.10;7.10;;;;;;;27.49;35.95;99195.77;218436;1254;140594;-68
2023/07/03 11:42:09;;;;;;;11.70;7.40;;;;;;;27.41;35.62;99195.67;218472;1253;139910;-66
2023/07/03 11:47:25;;;;;;;7.70;6.90;;;;;;;27.26;35.24;99194.09;220829;1254;222398;-70
2023/07/03 11:52:40;;;;;;;11.50;7.60;;;;;;;26.87;35.07;99192.35;219929;1253;139605;-67
2023/07/03 11:57:49;;;;;;;8.90;6.20;;;;;;;26.55;35.26;99191.52;219744;1254;139914;-67
2023/07/03 12:03:14;;;;;;;8.30;6.80;;;;;;;27.03;36.28;99180.23;220911;1253;140697;-67
2023/07/03 12:08:19;;;;;;;8.20;6.60;;;;;;;27.31;35.95;99183.88;220772;1254;140113;-67
2023/07/03 12:13:46;;;;;;;10.80;7.20;;;;;;;27.18;34.95;99190.09;220023;1254;139638;-68
2023/07/03 12:19:04;;;;;;;10.80;6.60;;;;;;;26.86;34.63;99195.61;220082;1253;141847;-67
2023/07/03 12:24:21;;;;;;;11.80;7.50;;;;;;;26.74;34.68;99188.13;218671;1257;139216;-70
2023/07/03 12:29:32;;;;;;;10.30;6.50;;;;;;;26.59;34.98;99188.64;218188;1254;140138;-66
2023/07/03 12:34:42;;;;;;;9.60;7.30;;;;;;;26.32;35.16;99191.64;219840;1253;140398;-65
2023/07/03 12:39:49;;;;;;;19.70;8.70;;;;;;;26.11;35.26;99192.13;218185;1254;139892;-66
2023/07/03 12:45:11;;;;;;;8.40;6.60;;;;;;;26.29;35.40;99182.66;218411;1254;140368;-66
2023/07/03 12:50:18;;;;;;;11.90;7.00;;;;;;;26.49;35.39;99178.02;218517;1257;139277;-65
2023/07/03 12:55:24;;;;;;;12.40;8.10;;;;;;;26.89;35.37;99182.25;218562;1257;139647;-68
2023/07/03 13:00:33;;;;;;;10.20;7.40;;;;;;;27.00;35.13;99177.64;218134;1257;140019;-66
2023/07/03 13:05:39;;;;;;;17.70;8.50;;;;;;;26.93;35.15;99179.38;218067;1254;139652;-65
2023/07/03 13:11:05;;;;;;;10.60;7.40;;;;;;;26.83;34.98;99181.88;217971;1254;141117;-65
2023/07/03 13:16:17;;;;;;;12.50;7.50;;;;;;;26.60;35.46;99179.05;218153;1254;140316;-66
2023/07/03 13:21:24;;;;;;;11.70;7.40;;;;;;;26.42;36.00;99185.98;219061;1253;140231;-68
2023/07/03 13:26:33;;;;;;;9.90;8.10;;;;;;;26.55;36.18;99178.88;218375;1254;141125;-67
2023/07/03 13:31:45;;;;;;;10.40;8.40;;;;;;;26.68;35.88;99174.96;218126;1254;139819;-68
2023/07/03 13:36:57;;;;;;;11.70;8.60;;;;;;;26.82;36.22;99171.55;219740;1253;140365;-66
2023/07/03 13:42:07;;;;;;;12.30;6.70;;;;;;;26.91;35.91;99165.65;219572;1253;140938;-66
2023/07/03 13:47:15;;;;;;;12.40;8.70;;;;;;;26.67;36.01;99162.13;220848;1254;140041;-67
2023/07/03 13:52:22;;;;;;;12.70;9.00;;;;;;;26.46;36.22;99165.46;220782;1253;140663;-67
2023/07/03 13:57:28;;;;;;;15.50;9.50;;;;;;;26.44;36.28;99156.05;220752;1254;140595;-66
2023/07/03 14:02:34;;;;;;;11.00;8.10;;;;;;;26.80;36.27;99150.70;220741;1253;139996;-68
2023/07/03 14:07:52;;;;;;;10.70;7.40;;;;;;;26.72;35.72;99156.45;220982;1254;139882;-69
2023/07/03 14:13:00;;;;;;;13.30;8.10;;;;;;;26.25;35.68;99157.36;220951;1254;139847;-68
2023/07/03 14:18:06;;;;;;;18.40;8.40;;;;;;;25.93;36.16;99163.00;220076;1254;140033;-69
2023/07/03 14:23:17;;;;;;;14.80;8.70;;;;;;;25.91;36.24;99159.52;218152;1254;250540;-69
2023/07/03 14:28:25;;;;;;;13.20;9.10;;;;;;;26.17;36.39;99161.74;218786;1254;140252;-68
2023/07/03 14:33:32;;;;;;;14.70;8.80;;;;;;;26.23;36.48;99161.36;218387;1257;150663;-67
2023/07/03 14:38:38;;;;;;;12.10;8.10;;;;;;;26.29;36.57;99162.70;218789;1255;140339;-69
2023/07/03 14:43:44;;;;;;;12.50;8.60;;;;;;;26.31;36.40;99161.80;217721;1257;139476;-66
2023/07/03 14:48:54;;;;;;;13.00;8.10;;;;;;;26.14;36.17;99161.42;218609;1255;139954;-64
2023/07/03 14:54:00;;;;;;;14.20;9.10;;;;;;;26.17;36.27;99164.73;218704;1254;140354;-68
2023/07/03 14:59:08;;;;;;;13.50;8.30;;;;;;;26.52;36.19;99157.63;218017;1256;141354;-68
2023/07/03 15:04:14;;;;;;;10.90;8.80;;;;;;;26.58;35.45;99161.61;218562;1256;140032;-68
2023/07/03 15:09:25;;;;;;;14.80;8.90;;;;;;;26.39;35.34;99174.34;218205;1257;140654;-69
2023/07/03 15:14:31;;;;;;;16.00;9.50;;;;;;;26.04;35.41;99172.95;219178;1255;140766;-71
2023/07/03 15:19:40;;;;;;;13.40;8.40;;;;;;;25.93;35.80;99168.48;218075;1258;139375;-68
2023/07/03 15:24:50;;;;;;;11.70;8.10;;;;;;;25.98;35.91;99168.29;218362;1255;140339;-69
2023/07/03 15:29:56;;;;;;;14.60;8.60;;;;;;;25.82;35.98;99171.38;219446;1254;139777;-67
2023/07/03 15:35:04;;;;;;;15.30;9.20;;;;;;;25.75;36.26;99168.06;219294;1257;139434;-68
2023/07/03 15:40:17;;;;;;;16.20;9.50;;;;;;;25.79;36.24;99167.31;220289;1254;139600;-69
2023/07/03 15:45:25;;;;;;;14.30;8.00;;;;;;;25.82;35.89;99171.86;219267;1257;139383;-70
2023/07/03 15:50:34;;;;;;;11.70;8.10;;;;;;;25.77;35.37;99173.83;220464;1256;140353;-66
2023/07/03 15:55:56;;;;;;;11.90;8.00;;;;;;;25.47;35.29;99175.38;220564;1254;140440;-68
2023/07/03 16:01:08;;;;;;;15.30;7.20;;;;;;;25.35;35.10;99178.22;220844;1253;141399;-68
2023/07/03 16:06:18;;;;;;;8.30;5.90;;;;;;;25.24;35.09;99180.02;220140;1256;247955;-69
2023/07/03 16:11:35;;;;;;;11.80;6.00;;;;;;;25.20;35.11;99179.60;219407;1253;139182;-72
2023/07/03 16:16:41;;;;;;;11.70;6.90;;;;;;;25.14;35.02;99180.67;219600;1253;140121;-69
2023/07/03 16:21:50;;;;;;;10.70;6.40;;;;;;;25.12;34.89;99187.61;219073;1253;139841;-64
2023/07/03 16:26:58;;;;;;;11.10;5.70;;;;;;;25.17;34.77;99194.54;219318;1257;141307;-65
2023/07/03 16:32:05;;;;;;;6.70;5.50;;;;;;;25.24;34.46;99200.58;218787;1254;138988;-71
2023/07/03 16:37:13;;;;;;;15.90;6.10;;;;;;;25.21;34.06;99207.67;218474;1254;138963;-70
2023/07/03 16:42:21;;;;;;;15.60;5.70;;;;;;;25.16;33.91;99211.20;219281;1256;139671;-69
2023/07/03 16:47:29;;;;;;;11.20;5.00;;;;;;;25.15;33.80;99216.45;219196;1254;151942;-73
2023/07/03 16:52:36;;;;;;;8.20;5.20;;;;;;;25.07;33.57;99222.77;219127;1254;139786;-65
2023/07/03 16:57:45;;;;;;;7.10;5.40;;;;;;;24.91;33.55;99227.40;218555;1257;139153;-65
2023/07/03 17:02:54;;;;;;;14.10;6.00;;;;;;;24.68;33.95;99232.59;218320;1254;139944;-69
2023/07/03 17:08:02;;;;;;;14.10;5.60;;;;;;;24.43;33.96;99237.77;218852;1254;139701;-72
2023/07/03 17:13:10;;;;;;;10.20;5.40;;;;;;;24.17;34.15;99231.64;218940;1254;140193;-68
2023/07/03 17:18:18;;;;;;;7.90;4.70;;;;;;;24.03;34.77;99236.35;219577;1254;139239;-69
2023/07/03 17:23:25;;;;;;;10.10;4.70;;;;;;;23.89;34.83;99240.36;218487;1254;138563;-69
2023/07/03 17:28:34;;;;;;;6.90;4.90;;;;;;;23.80;35.11;99239.36;219339;1254;140354;-68
2023/07/03 17:33:42;;;;;;;8.40;4.50;;;;;;;23.72;35.14;99242.02;219285;1254;140014;-68
2023/07/03 17:38:54;;;;;;;9.90;5.80;;;;;;;23.60;35.49;99248.19;218937;1254;140125;-69
2023/07/03 17:44:01;;;;;;;10.60;5.00;;;;;;;23.52;35.74;99247.70;219595;1254;139262;-68
2023/07/03 17:49:06;;;;;;;7.00;4.80;;;;;;;23.42;35.70;99250.98;220636;1258;139688;-68
2023/07/03 17:54:13;;;;;;;8.90;4.40;;;;;;;23.29;36.12;99249.39;220701;1254;140382;-68
2023/07/03 17:59:18;;;;;;;14.50;5.10;;;;;;;23.19;36.55;99249.64;220196;1254;139975;-68
2023/07/03 18:04:23;;;;;;;9.30;5.20;;;;;;;23.05;36.84;99251.02;220967;1253;139252;-69
2023/07/03 18:09:31;;;;;;;8.50;4.70;;;;;;;22.89;37.23;99249.79;219634;1254;139826;-68
2023/07/03 18:14:37;;;;;;;12.90;5.90;;;;;;;22.78;38.12;99251.27;220029;1254;139667;-68
2023/07/03 18:19:42;;;;;;;8.50;5.00;;;;;;;22.63;38.22;99253.98;218597;1258;140279;-66
2023/07/03 18:24:47;;;;;;;10.60;5.40;;;;;;;22.50;38.55;99256.46;218695;1257;139013;-68
2023/07/03 18:30:00;;;;;;;11.90;5.40;;;;;;;22.38;39.07;99260.71;219560;1254;140216;-68
2023/07/03 18:35:06;;;;;;;13.70;5.60;;;;;;;22.20;40.08;99262.14;218937;1254;140196;-68
2023/07/03 18:40:13;;;;;;;8.60;5.40;;;;;;;22.02;41.15;99265.95;219696;1257;139699;-69
2023/07/03 18:45:21;;;;;;;11.70;5.50;;;;;;;21.77;42.21;99269.11;219509;1254;139960;-68
2023/07/03 18:50:28;;;;;;;10.00;5.20;;;;;;;21.52;42.70;99274.81;219458;1254;140375;-68
2023/07/03 18:55:37;;;;;;;13.90;5.40;;;;;;;21.27;43.35;99279.23;219690;1254;139207;-68
2023/07/03 19:00:45;;;;;;;12.50;5.50;;;;;;;21.04;44.49;99286.09;219174;1254;139528;-68
2023/07/03 19:05:58;;;;;;;10.70;4.90;;;;;;;20.77;44.91;99289.89;219356;1254;138823;-66
2023/07/03 19:11:08;;;;;;;7.50;5.50;;;;;;;20.48;45.43;99299.78;220450;1254;141873;-68
2023/07/03 19:16:20;;;;;;;11.30;5.30;;;;;;;20.22;46.25;99305.31;219684;1257;140791;-67
2023/07/03 19:21:27;;;;;;;7.90;5.30;;;;;;;19.98;47.17;99313.73;219372;1257;140049;-67
2023/07/03 19:26:36;;;;;;;8.80;5.20;;;;;;;19.70;47.30;99325.40;220827;1257;139081;-68
2023/07/03 19:31:43;;;;;;;15.40;6.20;;;;;;;19.41;47.51;99328.95;220919;1259;139471;-68
2023/07/03 19:36:51;;;;;;;11.00;5.70;;;;;;;19.17;48.07;99334.66;220635;1254;139303;-68
2023/07/03 19:42:02;;;;;;;9.70;5.00;;;;;;;18.92;49.00;99342.13;220910;1254;140697;-69
2023/07/03 19:47:08;;;;;;;9.30;4.70;;;;;;;18.75;49.90;99347.30;220440;1254;139097;-67
2023/07/03 19:52:20;;;;;;;11.00;4.90;;;;;;;18.52;50.62;99349.96;220041;1254;140621;-68
2023/07/03 19:57:27;;;;;;;12.30;5.10;;;;;;;18.24;51.39;99352.20;218631;1254;140301;-69
2023/07/03 20:02:34;;;;;;;10.60;5.10;;;;;;;18.02;51.91;99351.95;218507;1254;139590;-69
2023/07/03 20:07:42;;;;;;;10.90;5.90;;;;;;;17.72;52.74;99352.68;219388;1254;141631;-69
2023/07/03 20:12:52;;;;;;;7.80;5.30;;;;;;;17.45;53.12;99358.91;219125;1256;139246;-70
2023/07/03 20:17:59;;;;;;;9.90;5.50;;;;;;;17.25;53.83;99364.05;219717;1253;139116;-70
2023/07/03 20:23:04;;;;;;;16.40;5.00;;;;;;;17.06;54.43;99370.78;218945;1258;141131;-68
2023/07/03 20:28:09;;;;;;;16.40;5.60;;;;;;;16.86;55.05;99370.94;218012;1259;139400;-69
2023/07/03 20:33:17;;;;;;;7.20;5.20;;;;;;;16.63;54.98;99371.26;218828;1259;140549;-69
2023/07/03 20:38:23;;;;;;;12.20;6.00;;;;;;;16.36;55.51;99366.73;218304;1254;139055;-69
2023/07/03 20:43:29;;;;;;;11.90;5.50;;;;;;;16.21;56.11;99373.78;219418;1258;139368;-68
2023/07/03 20:48:40;;;;;;;10.00;6.00;;;;;;;16.10;56.61;99379.20;218059;1257;140641;-70
2023/07/03 20:59:02;;;;;;;9.70;5.70;;;;;;;15.90;57.91;99375.23;218752;1259;140482;-67
2023/07/03 21:04:08;;;;;;;19.20;7.30;;;;;;;15.73;58.58;99383.08;219905;1257;139260;-69
2023/07/03 21:09:16;;;;;;;11.40;5.90;;;;;;;15.67;59.07;99386.91;220139;1254;140130;-68
2023/07/03 21:14:25;;;;;;;11.20;5.60;;;;;;;15.69;59.49;99385.77;218203;1256;140225;-68
2023/07/03 21:19:37;;;;;;;11.30;6.00;;;;;;;15.65;59.77;99389.51;220397;1259;139094;-68
2023/07/03 21:24:56;;;;;;;7.30;5.70;;;;;;;15.58;60.18;99397.45;220545;1259;138669;-68
2023/07/03 21:30:13;;;;;;;9.10;5.10;;;;;;;15.56;60.48;99391.80;220699;1254;139432;-69
2023/07/03 21:35:21;;;;;;;13.50;5.10;;;;;;;15.53;60.53;99390.67;218119;1254;139172;-68
2023/07/03 21:40:32;;;;;;;16.10;5.80;;;;;;;15.44;60.63;99398.70;218987;1254;139819;-68
2023/07/03 21:45:39;;;;;;;10.60;5.50;;;;;;;15.29;60.68;99398.70;218838;1254;141946;-68
2023/07/03 21:50:52;;;;;;;9.50;5.00;;;;;;;15.08;61.01;99400.36;218613;1254;140932;-67
2023/07/03 21:56:38;;;;;;;9.90;5.90;;;;;;;14.97;61.33;99403.57;218556;1254;139993;-70
2023/07/03 22:01:50;;;;;;;15.70;6.10;;;;;;;14.80;61.71;99404.55;218545;1254;140400;-68
2023/07/03 22:06:58;;;;;;;9.50;5.30;;;;;;;14.65;62.22;99406.83;218822;1254;140878;-67
2023/07/03 22:12:06;;;;;;;9.70;5.40;;;;;;;14.60;62.68;99412.41;218530;1254;139816;-67
2023/07/03 22:17:11;;;;;;;13.20;6.10;;;;;;;14.50;63.02;99419.97;218027;1254;140298;-69
2023/07/03 22:22:17;;;;;;;11.40;5.50;;;;;;;14.43;63.55;99421.71;218347;1254;141768;-68
2023/07/03 22:27:23;;;;;;;9.40;6.00;;;;;;;14.38;63.80;99425.83;219159;1253;140830;-69
2023/07/03 22:32:28;;;;;;;10.20;7.00;;;;;;;14.34;64.26;99427.66;219278;1254;139854;-69
2023/07/03 22:37:34;;;;;;;15.50;6.40;;;;;;;14.30;64.43;99425.02;219049;1253;141831;-68
2023/07/03 22:42:41;;;;;;;14.70;7.30;;;;;;;14.26;64.66;99426.46;218608;1254;777333;-69
2023/07/03 22:47:47;;;;;;;7.20;5.70;;;;;;;14.25;64.97;99428.23;219412;1254;142441;-68
2023/07/03 22:52:51;;;;;;;10.50;6.10;;;;;;;14.23;64.91;99428.70;219150;1257;140153;-68
2023/07/03 22:57:59;;;;;;;12.70;6.20;;;;;;;14.16;65.48;99427.67;220046;1253;140931;-69
2023/07/03 23:03:04;;;;;;;11.70;5.90;;;;;;;14.11;65.37;99427.39;218291;1254;140204;-68
2023/07/03 23:08:11;;;;;;;9.80;5.30;;;;;;;14.06;66.03;99431.94;219417;1254;141494;-68
2023/07/03 23:13:17;;;;;;;10.60;6.70;;;;;;;14.06;66.34;99439.45;218794;1254;140541;-68
2023/07/03 23:18:24;;;;;;;8.50;5.10;;;;;;;14.08;66.68;99438.75;220264;1254;140313;-68
2023/07/03 23:23:32;;;;;;;11.30;6.50;;;;;;;14.11;66.79;99444.44;220535;1254;140056;-68
2023/07/03 23:28:39;;;;;;;9.80;6.50;;;;;;;14.14;67.14;99450.51;220465;1254;140378;-68
2023/07/03 23:33:49;;;;;;;10.00;6.40;;;;;;;14.23;67.54;99458.73;220268;1254;140192;-68
2023/07/03 23:38:58;;;;;;;10.40;6.70;;;;;;;14.28;67.47;99461.98;219429;1254;140692;-68
2023/07/03 23:44:06;;;;;;;13.70;6.80;;;;;;;14.27;67.61;99458.96;219654;1254;142340;-69
2023/07/03 23:49:12;;;;;;;11.20;6.30;;;;;;;14.20;67.56;99454.22;218816;1254;140285;-69
2023/07/03 23:54:17;;;;;;;12.00;6.40;;;;;;;14.11;67.85;99451.78;218786;1254;140407;-67
2023/07/03 23:59:21;;;;;;;13.10;7.40;;;;;;;14.11;68.20;99455.86;218246;1254;140129;-68
